Time,TemperatureF,DewpointF,PressureIn,WindDirection,WindDirectionDegrees,WindSpeedMPH,WindSpeedGustMPH,Humidity,HourlyPrecipIn,Conditions,Clouds,dailyrainin,SoftwareType,DateUTC
2013-12-12 00:12:00,13.0,11.0,30.66,WNW,289,0.0,0.0,91,0.00,,,0.27,,2013-12-12 06:12:00,
2013-12-12 00:22:00,12.0,10.0,30.66,WNW,289,0.0,0.0,91,0.00,,,0.27,,2013-12-12 06:22:00,
2013-12-12 00:52:00,12.0,10.0,30.66,WNW,289,0.0,0.0,91,0.00,,,0.27,,2013-12-12 06:52:00,
2013-12-12 01:22:00,12.0,10.0,30.65,WNW,289,0.0,0.0,91,0.00,,,0.27,,2013-12-12 07:22:00,
2013-12-12 01:42:00,12.0,10.0,30.65,WNW,289,0.0,0.0,91,0.00,,,0.27,,2013-12-12 07:42:00,
2013-12-12 01:52:00,12.0,10.0,30.64,WNW,289,0.0,0.0,91,0.00,,,0.27,,2013-12-12 07:52:00,
2013-12-12 02:52:00,11.0,9.0,30.65,WNW,289,0.0,0.0,91,0.00,,,0.27,,2013-12-12 08:52:00,
2013-12-12 03:22:00,11.0,9.0,30.65,WNW,289,0.0,0.0,91,0.00,,,0.27,,2013-12-12 09:22:00,
2013-12-12 03:43:00,10.0,8.0,30.65,WNW,289,0.0,0.0,91,0.00,,,0.27,,2013-12-12 09:43:00,
2013-12-12 03:54:00,10.0,8.0,30.65,WNW,289,0.0,0.0,90,0.00,,,0.27,,2013-12-12 09:54:00,
2013-12-12 04:12:00,10.0,8.0,30.64,WNW,289,0.0,0.0,91,0.00,,,0.27,,2013-12-12 10:12:00,
2013-12-12 04:23:00,10.0,8.0,30.64,WNW,289,0.0,0.0,91,0.00,,,0.27,,2013-12-12 10:23:00,
2013-12-12 04:43:00,10.0,8.0,30.64,WNW,289,0.0,0.0,91,0.00,,,0.27,,2013-12-12 10:43:00,
2013-12-12 04:53:00,10.0,8.0,30.63,WNW,289,0.0,0.0,90,0.00,,,0.27,,2013-12-12 10:53:00,
2013-12-12 05:23:00,9.0,7.0,30.63,WNW,289,0.0,0.0,91,0.00,,,0.27,,2013-12-12 11:23:00,
2013-12-12 05:42:00,9.0,7.0,30.64,WNW,289,0.0,0.0,90,0.00,,,0.27,,2013-12-12 11:42:00,
2013-12-12 05:53:00,9.0,7.0,30.63,WNW,289,0.0,0.0,91,0.00,,,0.27,,2013-12-12 11:53:00,
2013-12-12 06:12:00,9.0,7.0,30.63,WNW,289,0.0,0.0,91,0.00,,,0.27,,2013-12-12 12:12:00,
2013-12-12 06:22:00,9.0,7.0,30.63,WNW,289,0.0,0.0,91,0.00,,,0.27,,2013-12-12 12:22:00,
2013-12-12 06:42:00,9.0,7.0,30.63,WNW,289,0.0,0.0,90,0.00,,,0.27,,2013-12-12 12:42:00,
2013-12-12 06:52:00,9.0,7.0,30.63,WNW,289,0.0,0.0,91,0.00,,,0.27,,2013-12-12 12:52:00,
2013-12-12 07:12:00,9.0,7.0,30.62,WNW,289,0.0,0.0,91,0.00,,,0.27,,2013-12-12 13:12:00,
2013-12-12 07:22:00,8.0,6.0,30.62,WNW,289,0.0,0.0,91,0.00,,,0.27,,2013-12-12 13:22:00,
2013-12-12 07:42:00,8.0,6.0,30.62,WNW,289,0.0,0.0,90,0.00,,,0.27,,2013-12-12 13:42:00,
2013-12-12 07:52:00,8.0,6.0,30.63,WNW,289,0.0,0.0,90,0.00,,,0.27,,2013-12-12 13:52:00,
2013-12-12 10:12:00,25.0,21.0,30.64,West,277,0.0,2.0,85,0.00,,,0.27,,2013-12-12 16:12:00,
2013-12-12 10:23:00,29.0,23.0,30.65,SSE,150,0.0,2.0,78,0.00,,,0.27,,2013-12-12 16:23:00,
2013-12-12 10:43:00,31.0,21.0,30.64,SSW,204,1.0,5.0,65,0.00,,,0.27,,2013-12-12 16:43:00,
2013-12-12 10:53:00,33.0,22.0,30.64,South,182,0.0,2.0,64,0.00,,,0.27,,2013-12-12 16:53:00,
2013-12-12 11:23:00,36.0,21.0,30.63,WSW,255,0.0,4.0,54,0.01,,,0.28,,2013-12-12 17:23:00,
2013-12-12 11:43:00,37.0,21.0,30.63,SW,219,0.0,5.0,52,0.02,,,0.28,,2013-12-12 17:43:00,
2013-12-12 11:53:00,39.0,22.0,30.61,West,259,0.0,7.0,51,0.02,,,0.28,,2013-12-12 17:53:00,
2013-12-12 12:11:00,39.0,21.0,30.60,SW,229,1.0,5.0,48,0.02,,,0.30,,2013-12-12 18:11:00,
2013-12-12 12:22:00,40.0,23.0,30.59,SW,222,1.0,5.0,50,0.03,,,0.31,,2013-12-12 18:22:00,
2013-12-12 12:43:00,40.0,21.0,30.58,West,264,1.0,6.0,46,0.04,,,0.31,,2013-12-12 18:43:00,
2013-12-12 12:52:00,41.0,23.0,30.57,West,269,0.0,5.0,49,0.04,,,0.32,,2013-12-12 18:52:00,
2013-12-12 13:11:00,42.0,22.0,30.56,WSW,242,0.0,5.0,45,0.06,,,0.34,,2013-12-12 19:11:00,
2013-12-12 13:21:00,42.0,21.0,30.55,West,273,3.0,6.0,43,0.05,,,0.35,,2013-12-12 19:21:00,
2013-12-12 13:42:00,42.0,22.0,30.55,WNW,290,1.0,5.0,45,0.06,,,0.32,,2013-12-12 19:42:00,
2013-12-12 13:52:00,42.0,22.0,30.54,WNW,293,1.0,6.0,45,0.06,,,0.33,,2013-12-12 19:52:00,
2013-12-12 14:12:00,41.0,21.0,30.54,West,275,2.0,7.0,45,0.06,,,0.35,,2013-12-12 20:12:00,
2013-12-12 14:21:00,41.0,21.0,30.54,West,281,3.0,10.0,44,0.06,,,0.36,,2013-12-12 20:21:00,
2013-12-12 14:42:00,41.0,21.0,30.52,West,265,2.0,6.0,45,0.05,,,0.28,,2013-12-12 20:42:00,
2013-12-12 14:52:00,42.0,23.0,30.51,SW,227,0.0,6.0,46,0.05,,,0.28,,2013-12-12 20:52:00,
2013-12-12 15:11:00,42.0,20.0,30.51,WNW,291,1.0,7.0,41,0.04,,,0.30,,2013-12-12 21:11:00,
2013-12-12 15:21:00,41.0,20.0,30.50,West,260,1.0,6.0,43,0.03,,,0.30,,2013-12-12 21:21:00,
2013-12-12 15:43:00,40.0,19.0,30.49,WSW,251,1.0,5.0,42,0.03,,,0.24,,2013-12-12 21:43:00,
2013-12-12 15:53:00,40.0,19.0,30.49,WSW,256,0.0,4.0,42,0.02,,,0.24,,2013-12-12 21:53:00,
2013-12-12 16:12:00,39.0,21.0,30.49,WSW,242,0.0,2.0,48,0.01,,,0.24,,2013-12-12 22:12:00,
2013-12-12 16:22:00,38.0,20.0,30.47,South,180,0.0,2.0,48,0.01,,,0.24,,2013-12-12 22:22:00,
2013-12-12 16:43:00,36.0,23.0,30.46,ESE,117,0.0,1.0,59,0.00,,,0.21,,2013-12-12 22:43:00,
2013-12-12 16:53:00,33.0,24.0,30.45,ESE,117,0.0,0.0,68,0.00,,,0.21,,2013-12-12 22:53:00,
2013-12-12 17:12:00,31.0,23.0,30.45,ESE,117,0.0,0.0,72,0.00,,,0.21,,2013-12-12 23:12:00,
2013-12-12 21:11:00,24.0,20.0,30.41,SSW,198,0.0,0.0,85,0.00,,,0.20,,2013-12-13 03:11:00,
2013-12-12 21:22:00,23.0,19.0,30.41,SSW,198,0.0,0.0,86,0.00,,,0.20,,2013-12-13 03:22:00,
2013-12-12 21:43:00,23.0,20.0,30.40,SSW,198,0.0,0.0,87,0.00,,,0.20,,2013-12-13 03:43:00,
2013-12-12 22:43:00,24.0,22.0,30.37,South,170,0.0,2.0,90,0.00,,,0.20,,2013-12-13 04:43:00,
2013-12-12 22:53:00,27.0,23.0,30.36,South,175,0.0,2.0,85,0.00,,,0.20,,2013-12-13 04:53:00,
2013-12-12 23:12:00,29.0,25.0,30.36,North,9,0.0,4.0,83,0.00,,,0.20,,2013-12-13 05:12:00,
2013-12-12 23:22:00,30.0,25.0,30.36,NNW,346,1.0,5.0,80,0.00,,,0.20,,2013-12-13 05:22:00,
2013-12-12 23:42:00,30.0,24.0,30.35,SSE,161,0.0,2.0,78,0.00,,,0.20,,2013-12-13 05:42:00,
2013-12-12 23:53:00,29.0,24.0,30.35,South,182,0.0,2.0,80,0.00,,,0.20,,2013-12-13 05:53:00,